createdAt,value
2017-11-12T00:02:34.970Z,55.60
2017-11-12T00:17:37.893Z,54.97
2017-11-12T00:32:34.313Z,54.10
2017-11-12T00:47:34.301Z,63.83
2017-11-12T01:02:34.223Z,52.57
2017-11-12T01:17:35.121Z,40.20
2017-11-12T01:32:34.630Z,41.10
2017-11-12T01:47:36.482Z,44.03
2017-11-12T02:02:34.421Z,45.83
2017-11-12T02:17:34.367Z,51.20
2017-11-12T02:32:34.802Z,39.73
2017-11-12T02:47:35.717Z,37.20
2017-11-12T03:02:35.568Z,35.73
2017-11-12T03:17:34.571Z,30.20
2017-11-12T03:32:35.030Z,28.00
2017-11-12T03:47:35.029Z,24.83
2017-11-12T04:02:34.909Z,21.87
2017-11-12T04:17:36.346Z,20.53
2017-11-12T04:32:34.289Z,20.70
2017-11-12T04:47:33.978Z,17.90
2017-11-12T05:02:35.129Z,18.40
2017-11-12T05:17:35.034Z,18.07
2017-11-12T05:32:34.538Z,16.43
2017-11-12T05:47:33.877Z,14.83
2017-11-12T06:02:38.854Z,15.80
2017-11-12T06:17:34.290Z,17.90
2017-11-12T06:32:34.725Z,20.27
2017-11-12T06:47:34.726Z,19.60
2017-11-12T07:02:36.644Z,17.17
2017-11-12T07:17:34.574Z,18.33
2017-11-12T07:32:34.979Z,13.30
2017-11-12T07:47:35.925Z,12.13
2017-11-12T08:02:35.837Z,11.70
2017-11-12T08:17:36.964Z,13.27
2017-11-12T08:32:34.190Z,15.33
2017-11-12T08:47:35.197Z,15.37
2017-11-12T09:02:35.126Z,15.07
2017-11-12T09:17:34.993Z,16.97
2017-11-12T09:32:34.441Z,16.87
2017-11-12T09:47:35.927Z,14.63
2017-11-12T10:02:36.397Z,13.70
2017-11-12T10:17:34.295Z,12.33
2017-11-12T10:32:34.738Z,14.20
2017-11-12T10:47:36.579Z,15.63
2017-11-12T11:02:34.578Z,15.40
2017-11-12T11:17:36.520Z,14.90
2017-11-12T11:32:34.902Z,15.50
2017-11-12T11:47:34.909Z,16.33
2017-11-12T12:02:36.769Z,12.80
2017-11-12T12:17:36.755Z,14.67
2017-11-12T12:32:37.663Z,10.57
2017-11-12T12:47:35.103Z,7.47
2017-11-12T13:17:34.966Z,5.63
2017-11-12T13:32:34.349Z,6.37
2017-11-12T13:47:34.351Z,5.60
2017-11-12T14:02:33.785Z,6.03
2017-11-12T14:17:34.169Z,4.60
2017-11-12T14:32:34.605Z,5.30
2017-11-12T14:47:34.540Z,11.97
2017-11-12T15:02:37.468Z,12.00
2017-11-12T15:17:34.475Z,12.90
2017-11-12T15:32:34.976Z,13.47
2017-11-12T15:47:36.881Z,12.40
2017-11-12T16:02:36.721Z,11.40
2017-11-12T16:17:34.663Z,8.07
2017-11-12T16:32:34.154Z,5.20
2017-11-12T16:47:38.126Z,3.90
2017-11-12T17:02:35.063Z,3.30
2017-11-12T17:17:35.050Z,3.27
2017-11-12T17:32:34.387Z,3.50
2017-11-12T17:47:34.312Z,3.00
2017-11-12T18:02:36.362Z,3.47
2017-11-12T18:17:33.729Z,2.80
2017-11-12T18:32:36.463Z,2.90
2017-11-12T18:47:35.394Z,6.30
2017-11-12T19:02:41.986Z,7.37
2017-11-12T19:17:49.349Z,11.27
2017-11-12T19:32:35.897Z,3.50
2017-11-12T19:47:36.946Z,3.60
2017-11-12T20:02:34.796Z,3.07
2017-11-12T20:17:35.599Z,4.50
2017-11-12T20:32:35.174Z,3.33
2017-11-12T20:47:36.148Z,8.50
2017-11-12T21:02:34.176Z,6.00
2017-11-12T21:17:35.140Z,8.20
2017-11-12T21:32:36.490Z,11.77
2017-11-12T21:47:35.447Z,3.20
2017-11-12T22:02:34.822Z,3.63
2017-11-12T22:17:35.433Z,6.57
2017-11-12T22:32:34.699Z,6.90
2017-11-12T22:47:34.644Z,12.50
2017-11-12T23:02:34.585Z,14.30
2017-11-12T23:17:36.751Z,13.90
2017-11-12T23:32:34.968Z,11.53
2017-11-12T23:47:34.952Z,13.93
